createdAt,value
2017-10-10T00:00:01.739Z,1007.64
2017-10-10T00:01:01.721Z,1007.62
2017-10-10T00:02:01.708Z,1007.62
2017-10-10T00:03:01.692Z,1007.62
2017-10-10T00:04:01.677Z,1007.61
2017-10-10T00:05:01.661Z,1007.62
2017-10-10T00:06:01.645Z,1007.64
2017-10-10T00:07:01.633Z,1007.58
2017-10-10T00:08:01.615Z,1007.59
2017-10-10T00:09:01.601Z,1007.57
2017-10-10T00:10:01.587Z,1007.56
2017-10-10T00:11:01.572Z,1007.57
2017-10-10T00:12:01.559Z,1007.52
2017-10-10T00:13:01.540Z,1007.54
2017-10-10T00:14:01.527Z,1007.5
2017-10-10T00:15:01.512Z,1007.53
2017-10-10T00:16:01.496Z,1007.55
2017-10-10T00:17:01.479Z,1007.53
2017-10-10T00:18:01.465Z,1007.47
2017-10-10T00:19:01.653Z,1007.53
2017-10-10T00:20:01.436Z,1007.51
2017-10-10T00:21:01.423Z,1007.5
2017-10-10T00:22:01.406Z,1007.5
2017-10-10T00:23:01.389Z,1007.48
2017-10-10T00:24:01.375Z,1007.47
2017-10-10T00:25:01.360Z,1007.44
2017-10-10T00:26:01.344Z,1007.44
2017-10-10T00:27:01.328Z,1007.4
2017-10-10T00:28:01.314Z,1007.39
2017-10-10T00:29:01.302Z,1007.42
2017-10-10T00:30:01.282Z,1007.4
2017-10-10T00:31:01.270Z,1007.43
2017-10-10T00:32:01.253Z,1007.4
2017-10-10T00:33:01.238Z,1007.38
2017-10-10T00:34:01.221Z,1007.37
2017-10-10T00:35:01.207Z,1007.38
2017-10-10T00:36:01.191Z,1007.35
2017-10-10T00:37:01.178Z,1007.36
2017-10-10T00:38:01.161Z,1007.38
2017-10-10T00:39:01.146Z,1007.34
2017-10-10T00:40:01.135Z,1007.34
2017-10-10T00:41:01.119Z,1007.32
2017-10-10T00:42:01.102Z,1007.36
2017-10-10T00:43:01.087Z,1007.32
2017-10-10T00:44:01.070Z,1007.32
2017-10-10T00:45:01.055Z,1007.28
2017-10-10T00:46:01.041Z,1007.27
2017-10-10T00:47:01.029Z,1007.24
2017-10-10T00:48:01.011Z,1007.21
2017-10-10T00:49:01.000Z,1007.19
2017-10-10T00:50:00.982Z,1007.15
2017-10-10T00:51:00.966Z,1007.15
2017-10-10T00:52:00.949Z,1007.14
2017-10-10T00:53:00.936Z,1007.11
2017-10-10T00:54:00.924Z,1007.1
2017-10-10T00:55:00.907Z,1007.09
2017-10-10T00:56:00.891Z,1007.12
2017-10-10T00:57:00.875Z,1007.07
2017-10-10T00:58:00.860Z,1007.07
2017-10-10T00:59:00.846Z,1007.11
2017-10-10T01:00:00.830Z,1007.07
2017-10-10T01:01:00.815Z,1007.11
2017-10-10T01:02:00.799Z,1007.1
2017-10-10T01:03:00.786Z,1007.11
2017-10-10T01:04:00.771Z,1007.12
2017-10-10T01:05:00.756Z,1007.11
2017-10-10T01:06:00.741Z,1007.17
2017-10-10T01:07:00.726Z,1007.11
2017-10-10T01:08:00.711Z,1007.13
2017-10-10T01:09:00.698Z,1007.11
2017-10-10T01:10:00.681Z,1007.11
2017-10-10T01:11:00.666Z,1007.14
2017-10-10T01:12:00.651Z,1007.14
2017-10-10T01:13:00.635Z,1007.11
2017-10-10T01:14:00.620Z,1007.11
2017-10-10T01:15:00.606Z,1007.06
2017-10-10T01:16:00.591Z,1007.11
2017-10-10T01:17:00.575Z,1007.06
2017-10-10T01:18:00.562Z,1007.03
2017-10-10T01:19:00.546Z,1007.07
2017-10-10T01:20:00.531Z,1007.04
2017-10-10T01:21:00.517Z,1007.02
2017-10-10T01:22:00.512Z,1006.98
2017-10-10T01:23:00.487Z,1007.01
2017-10-10T01:24:00.472Z,1006.93
2017-10-10T01:25:00.460Z,1006.98
2017-10-10T01:26:00.443Z,1006.93
2017-10-10T01:27:00.428Z,1006.93
2017-10-10T01:28:00.411Z,1006.9
2017-10-10T01:29:00.396Z,1006.93
2017-10-10T01:30:00.381Z,1006.92
2017-10-10T01:31:00.369Z,1006.91
2017-10-10T01:32:00.352Z,1006.9
2017-10-10T01:33:00.355Z,1006.88
2017-10-10T01:34:00.321Z,1006.88
2017-10-10T01:35:00.307Z,1006.9
2017-10-10T01:36:00.293Z,1006.87
2017-10-10T01:37:00.275Z,1006.86
2017-10-10T01:38:00.263Z,1006.83
2017-10-10T01:39:00.247Z,1006.82
2017-10-10T01:40:00.232Z,1006.8
2017-10-10T01:41:00.216Z,1006.81
2017-10-10T01:42:00.204Z,1006.83
2017-10-10T01:43:00.187Z,1006.78
2017-10-10T01:44:00.175Z,1006.72
2017-10-10T01:45:00.158Z,1006.73
2017-10-10T01:46:00.142Z,1006.74
2017-10-10T01:47:00.127Z,1006.73
2017-10-10T01:48:00.113Z,1006.69
2017-10-10T01:49:00.098Z,1006.7
2017-10-10T01:50:00.082Z,1006.69
2017-10-10T01:51:00.068Z,1006.69
2017-10-10T01:52:00.052Z,1006.69
2017-10-10T01:53:00.038Z,1006.65
2017-10-10T01:54:00.023Z,1006.66
2017-10-10T01:55:00.007Z,1006.67
2017-10-10T01:55:59.991Z,1006.68
2017-10-10T01:56:59.974Z,1006.66
2017-10-10T01:57:59.960Z,1006.67
2017-10-10T01:58:59.945Z,1006.64
2017-10-10T01:59:59.931Z,1006.64
2017-10-10T02:00:59.917Z,1006.58
2017-10-10T02:01:59.902Z,1006.56
2017-10-10T02:02:59.886Z,1006.53
2017-10-10T02:03:59.872Z,1006.46
2017-10-10T02:04:59.861Z,1006.42
2017-10-10T02:05:59.840Z,1006.48
2017-10-10T02:06:59.826Z,1006.41
2017-10-10T02:07:59.811Z,1006.39
2017-10-10T02:08:59.802Z,1006.43
2017-10-10T02:09:59.787Z,1006.4
2017-10-10T02:10:59.767Z,1006.38
2017-10-10T02:11:59.752Z,1006.35
2017-10-10T02:12:59.734Z,1006.38
2017-10-10T02:13:59.721Z,1006.33
2017-10-10T02:14:59.706Z,1006.35
2017-10-10T02:15:59.690Z,1006.36
2017-10-10T02:16:59.675Z,1006.38
2017-10-10T02:17:59.661Z,1006.3
2017-10-10T02:18:59.847Z,1006.34
2017-10-10T02:19:59.630Z,1006.33
2017-10-10T02:20:59.616Z,1006.28
2017-10-10T02:21:59.600Z,1006.3
2017-10-10T02:22:59.589Z,1006.28
2017-10-10T02:23:59.570Z,1006.19
2017-10-10T02:24:59.556Z,1006.2
2017-10-10T02:25:59.542Z,1006.18
2017-10-10T02:26:59.526Z,1006.22
2017-10-10T02:27:59.511Z,1006.17
2017-10-10T02:28:59.495Z,1006.19
2017-10-10T02:29:59.480Z,1006.19
2017-10-10T02:30:59.465Z,1006.22
2017-10-10T02:31:59.453Z,1006.23
2017-10-10T02:32:59.436Z,1006.2
2017-10-10T02:33:59.422Z,1006.22
2017-10-10T02:34:59.406Z,1006.23
2017-10-10T02:35:59.393Z,1006.27
2017-10-10T02:36:59.377Z,1006.24
2017-10-10T02:37:59.362Z,1006.26
2017-10-10T02:38:59.351Z,1006.19
2017-10-10T02:39:59.344Z,1006.25
2017-10-10T02:40:59.317Z,1006.23
2017-10-10T02:41:59.303Z,1006.24
2017-10-10T02:42:59.285Z,1006.2
2017-10-10T02:43:59.272Z,1006.22
2017-10-10T02:44:59.256Z,1006.2
2017-10-10T02:45:59.240Z,1006.2
2017-10-10T02:46:59.227Z,1006.19
2017-10-10T02:47:59.214Z,1006.19
2017-10-10T02:48:59.197Z,1006.21
2017-10-10T02:49:59.186Z,1006.22
2017-10-10T02:50:59.166Z,1006.26
2017-10-10T02:51:59.164Z,1006.21
2017-10-10T02:52:59.137Z,1006.23
2017-10-10T02:53:59.125Z,1006.23
2017-10-10T02:54:59.106Z,1006.2
2017-10-10T02:55:59.093Z,1006.22
2017-10-10T02:56:59.076Z,1006.22
2017-10-10T02:57:59.061Z,1006.27
2017-10-10T02:58:59.045Z,1006.24
2017-10-10T02:59:59.034Z,1006.23
2017-10-10T03:00:59.015Z,1006.25
2017-10-10T03:01:59.003Z,1006.24
2017-10-10T03:02:58.986Z,1006.23
2017-10-10T03:03:58.971Z,1006.25
2017-10-10T03:04:58.960Z,1006.31
2017-10-10T03:05:58.941Z,1006.3
2017-10-10T03:06:58.927Z,1006.29
2017-10-10T03:07:58.914Z,1006.29
2017-10-10T03:08:58.902Z,1006.3
2017-10-10T03:09:58.881Z,1006.29
2017-10-10T03:10:58.866Z,1006.3
2017-10-10T03:11:58.855Z,1006.3
2017-10-10T03:12:58.836Z,1006.28
2017-10-10T03:13:58.824Z,1006.23
2017-10-10T03:14:58.809Z,1006.23
2017-10-10T03:15:58.791Z,1006.28
2017-10-10T03:16:58.784Z,1006.21
2017-10-10T03:17:58.761Z,1006.2
2017-10-10T03:18:58.746Z,1006.14
2017-10-10T03:19:58.733Z,1006.16
2017-10-10T03:20:58.717Z,1006.11
2017-10-10T03:21:58.700Z,1006.09
2017-10-10T03:22:58.686Z,1006.1
2017-10-10T03:23:58.672Z,1006.07
2017-10-10T03:24:58.656Z,1006.07
2017-10-10T03:25:58.641Z,1006.13
2017-10-10T03:26:58.627Z,1006.12
2017-10-10T03:27:58.612Z,1006.09
2017-10-10T03:28:58.600Z,1006.1
2017-10-10T03:29:58.589Z,1006.07
2017-10-10T03:30:58.572Z,1006.06
2017-10-10T03:31:58.551Z,1006.05
2017-10-10T03:32:58.536Z,1006.04
2017-10-10T03:33:58.521Z,1006.07
2017-10-10T03:34:58.505Z,1006.05
2017-10-10T03:35:58.490Z,1006.04
2017-10-10T03:36:58.477Z,1006.03
2017-10-10T03:37:58.482Z,1006.04
2017-10-10T03:38:58.448Z,1006.01
2017-10-10T03:39:58.433Z,1006
2017-10-10T03:40:58.416Z,1005.95
2017-10-10T03:41:58.402Z,1005.93
2017-10-10T03:42:58.388Z,1005.94
2017-10-10T03:43:58.371Z,1005.94
2017-10-10T03:44:58.357Z,1005.92
2017-10-10T03:45:58.342Z,1005.94
2017-10-10T03:46:58.327Z,1005.96
2017-10-10T03:47:58.331Z,1005.91
2017-10-10T03:48:58.296Z,1005.9
2017-10-10T03:49:58.283Z,1005.87
2017-10-10T03:50:58.269Z,1005.87
2017-10-10T03:51:58.252Z,1005.89
2017-10-10T03:52:58.239Z,1005.84
2017-10-10T03:53:58.225Z,1005.88
2017-10-10T03:54:58.206Z,1005.86
2017-10-10T03:55:58.191Z,1005.9
2017-10-10T03:56:58.176Z,1005.86
2017-10-10T03:57:58.167Z,1005.86
2017-10-10T03:58:58.153Z,1005.89
2017-10-10T03:59:58.133Z,1005.87
2017-10-10T04:00:58.172Z,1005.87
2017-10-10T04:01:58.104Z,1005.86
2017-10-10T04:02:58.086Z,1005.9
2017-10-10T04:03:58.073Z,1005.89
2017-10-10T04:04:58.059Z,1005.88
2017-10-10T04:05:58.041Z,1005.89
2017-10-10T04:06:58.034Z,1005.91
2017-10-10T04:07:58.012Z,1005.87
2017-10-10T04:08:57.997Z,1005.84
2017-10-10T04:09:57.980Z,1005.86
2017-10-10T04:10:57.969Z,1005.86
2017-10-10T04:11:57.952Z,1005.83
2017-10-10T04:12:57.937Z,1005.81
2017-10-10T04:13:57.921Z,1005.82
2017-10-10T04:14:57.905Z,1005.79
2017-10-10T04:15:57.893Z,1005.8
2017-10-10T04:16:57.877Z,1005.8
2017-10-10T04:17:57.863Z,1005.76
2017-10-10T04:18:58.051Z,1005.77
2017-10-10T04:19:57.833Z,1005.78
2017-10-10T04:20:57.819Z,1005.77
2017-10-10T04:21:57.805Z,1005.74
2017-10-10T04:22:57.787Z,1005.79
2017-10-10T04:23:57.774Z,1005.74
2017-10-10T04:24:57.757Z,1005.79
2017-10-10T04:25:57.742Z,1005.7
2017-10-10T04:26:57.734Z,1005.71
2017-10-10T04:27:57.712Z,1005.71
2017-10-10T04:28:57.698Z,1005.72
2017-10-10T04:29:57.682Z,1005.72
2017-10-10T04:30:57.669Z,1005.7
2017-10-10T04:31:57.656Z,1005.68
2017-10-10T04:32:57.640Z,1005.7
2017-10-10T04:33:57.626Z,1005.72
2017-10-10T04:34:57.609Z,1005.7
2017-10-10T04:35:57.595Z,1005.67
2017-10-10T04:36:57.579Z,1005.65
2017-10-10T04:37:57.563Z,1005.66
2017-10-10T04:38:57.549Z,1005.62
2017-10-10T04:39:57.536Z,1005.65
2017-10-10T04:40:57.518Z,1005.66
2017-10-10T04:41:57.504Z,1005.65
2017-10-10T04:42:57.491Z,1005.64
2017-10-10T04:43:57.477Z,1005.61
2017-10-10T04:44:57.458Z,1005.66
2017-10-10T04:45:57.444Z,1005.63
2017-10-10T04:46:57.428Z,1005.64
2017-10-10T04:47:57.414Z,1005.61
2017-10-10T04:48:57.399Z,1005.62
2017-10-10T04:49:57.382Z,1005.62
2017-10-10T04:50:57.372Z,1005.61
2017-10-10T04:51:57.355Z,1005.67
2017-10-10T04:52:57.340Z,1005.64
2017-10-10T04:53:57.324Z,1005.68
2017-10-10T04:54:57.310Z,1005.63
2017-10-10T04:55:57.295Z,1005.7
2017-10-10T04:56:57.280Z,1005.7
2017-10-10T04:57:57.266Z,1005.68
2017-10-10T04:58:57.255Z,1005.64
2017-10-10T04:59:57.236Z,1005.64
2017-10-10T05:00:57.221Z,1005.63
2017-10-10T05:01:57.206Z,1005.62
2017-10-10T05:02:57.193Z,1005.62
2017-10-10T05:03:57.177Z,1005.61
2017-10-10T05:04:57.161Z,1005.61
2017-10-10T05:05:57.151Z,1005.58
2017-10-10T05:06:57.135Z,1005.56
2017-10-10T05:07:57.116Z,1005.56
2017-10-10T05:08:57.102Z,1005.54
2017-10-10T05:09:57.087Z,1005.6
2017-10-10T05:10:57.073Z,1005.6
2017-10-10T05:11:57.055Z,1005.65
2017-10-10T05:12:57.042Z,1005.69
2017-10-10T05:13:57.031Z,1005.69
2017-10-10T05:14:57.013Z,1005.66
2017-10-10T05:15:56.996Z,1005.7
2017-10-10T05:16:56.982Z,1005.66
2017-10-10T05:17:56.969Z,1005.74
2017-10-10T05:18:56.953Z,1005.66
2017-10-10T05:19:56.938Z,1005.71
2017-10-10T05:20:56.923Z,1005.72
2017-10-10T05:21:56.908Z,1005.72
2017-10-10T05:22:56.895Z,1005.76
2017-10-10T05:23:56.887Z,1005.8
2017-10-10T05:24:56.870Z,1005.76
2017-10-10T05:25:56.848Z,1005.76
2017-10-10T05:26:56.832Z,1005.74
2017-10-10T05:27:56.819Z,1005.74
2017-10-10T05:28:56.811Z,1005.71
2017-10-10T05:29:56.794Z,1005.69
2017-10-10T05:30:56.783Z,1005.67
2017-10-10T05:31:56.760Z,1005.72
2017-10-10T05:32:56.744Z,1005.73
2017-10-10T05:33:56.738Z,1005.68
2017-10-10T05:34:56.715Z,1005.7
2017-10-10T05:35:56.698Z,1005.72
2017-10-10T05:36:56.687Z,1005.7
2017-10-10T05:37:56.667Z,1005.73
2017-10-10T05:38:56.655Z,1005.67
2017-10-10T05:39:56.639Z,1005.7
2017-10-10T05:40:56.623Z,1005.68
2017-10-10T05:41:56.608Z,1005.68
2017-10-10T05:42:56.594Z,1005.67
2017-10-10T05:43:56.586Z,1005.65
2017-10-10T05:44:56.568Z,1005.71
2017-10-10T05:45:56.555Z,1005.71
2017-10-10T05:46:56.536Z,1005.72
2017-10-10T05:47:56.521Z,1005.71
2017-10-10T05:48:56.506Z,1005.69
2017-10-10T05:49:56.492Z,1005.67
2017-10-10T05:50:56.477Z,1005.68
2017-10-10T05:51:56.461Z,1005.69
2017-10-10T05:52:56.445Z,1005.63
2017-10-10T05:53:56.431Z,1005.64
2017-10-10T05:54:56.420Z,1005.62
2017-10-10T05:55:56.400Z,1005.64
2017-10-10T05:56:56.386Z,1005.68
2017-10-10T05:57:56.371Z,1005.67
2017-10-10T05:58:56.358Z,1005.69
2017-10-10T05:59:56.349Z,1005.71
2017-10-10T06:00:56.328Z,1005.67
2017-10-10T06:01:56.313Z,1005.72
2017-10-10T06:02:56.304Z,1005.76
2017-10-10T06:03:56.285Z,1005.74
2017-10-10T06:04:56.269Z,1005.72
2017-10-10T06:05:56.253Z,1005.72
2017-10-10T06:06:56.239Z,1005.75
2017-10-10T06:07:56.226Z,1005.77
2017-10-10T06:08:56.221Z,1005.78
2017-10-10T06:09:56.194Z,1005.77
2017-10-10T06:10:56.180Z,1005.8
2017-10-10T06:11:56.165Z,1005.82
2017-10-10T06:12:56.151Z,1005.82
2017-10-10T06:13:56.136Z,1005.81
2017-10-10T06:14:56.119Z,1005.82
2017-10-10T06:15:56.109Z,1005.82
2017-10-10T06:16:56.098Z,1005.83
2017-10-10T06:17:56.074Z,1005.81
2017-10-10T06:18:56.269Z,1005.82
2017-10-10T06:19:56.051Z,1005.86
2017-10-10T06:20:56.035Z,1005.87
2017-10-10T06:21:56.018Z,1005.81
2017-10-10T06:22:56.004Z,1005.82
2017-10-10T06:23:55.988Z,1005.81
2017-10-10T06:24:55.974Z,1005.88
2017-10-10T06:25:55.962Z,1005.84
2017-10-10T06:26:55.945Z,1005.87
2017-10-10T06:27:55.930Z,1005.89
2017-10-10T06:28:55.916Z,1005.9
2017-10-10T06:29:55.900Z,1005.9
2017-10-10T06:30:55.888Z,1005.93
2017-10-10T06:31:55.870Z,1005.91
2017-10-10T06:32:55.857Z,1005.95
2017-10-10T06:33:55.842Z,1006
2017-10-10T06:34:55.828Z,1005.95
2017-10-10T06:35:55.816Z,1005.95
2017-10-10T06:36:55.798Z,1005.95
2017-10-10T06:37:55.785Z,1005.95
2017-10-10T06:38:55.769Z,1005.96
2017-10-10T06:39:55.754Z,1005.98
2017-10-10T06:40:55.738Z,1005.97
2017-10-10T06:41:55.723Z,1006
2017-10-10T06:42:55.710Z,1006
2017-10-10T06:43:55.699Z,1006
2017-10-10T06:44:55.680Z,1006
2017-10-10T06:45:55.666Z,1006.03
2017-10-10T06:46:55.648Z,1006.05
2017-10-10T06:47:55.635Z,1006.05
2017-10-10T06:48:55.620Z,1006.07
2017-10-10T06:49:55.610Z,1006.08
2017-10-10T06:50:55.597Z,1006.13
2017-10-10T06:51:55.580Z,1006.12
2017-10-10T06:52:55.562Z,1006.1
2017-10-10T06:53:55.544Z,1006.11
2017-10-10T06:54:55.531Z,1006.15
2017-10-10T06:55:55.523Z,1006.14
2017-10-10T06:56:55.508Z,1006.15
2017-10-10T06:57:55.486Z,1006.18
2017-10-10T06:58:55.474Z,1006.15
2017-10-10T06:59:55.462Z,1006.19
2017-10-10T07:00:55.447Z,1006.18
2017-10-10T07:01:55.443Z,1006.13
2017-10-10T07:02:55.415Z,1006.15
2017-10-10T07:03:55.403Z,1006.18
2017-10-10T07:04:55.383Z,1006.2
2017-10-10T07:05:55.370Z,1006.19
2017-10-10T07:06:55.359Z,1006.21
2017-10-10T07:07:55.344Z,1006.18
2017-10-10T07:08:55.328Z,1006.2
2017-10-10T07:09:55.319Z,1006.24
2017-10-10T07:10:55.303Z,1006.22
2017-10-10T07:11:55.284Z,1006.24
2017-10-10T07:12:55.266Z,1006.23
2017-10-10T07:13:55.254Z,1006.29
2017-10-10T07:14:55.237Z,1006.36
2017-10-10T07:15:55.222Z,1006.3
2017-10-10T07:16:55.214Z,1006.3
2017-10-10T07:17:55.204Z,1006.27
2017-10-10T07:18:55.179Z,1006.3
2017-10-10T07:19:55.162Z,1006.35
2017-10-10T07:20:55.148Z,1006.37
2017-10-10T07:21:55.134Z,1006.38
2017-10-10T07:22:55.121Z,1006.38
2017-10-10T07:23:55.104Z,1006.39
2017-10-10T07:24:55.090Z,1006.38
2017-10-10T07:25:55.075Z,1006.41
2017-10-10T07:26:55.061Z,1006.36
2017-10-10T07:27:55.047Z,1006.34
2017-10-10T07:28:55.032Z,1006.32
2017-10-10T07:29:55.017Z,1006.36
2017-10-10T07:30:55.001Z,1006.36
2017-10-10T07:31:54.989Z,1006.44
2017-10-10T07:32:54.973Z,1006.42
2017-10-10T07:33:54.958Z,1006.41
2017-10-10T07:34:54.946Z,1006.47
2017-10-10T07:35:54.929Z,1006.42
2017-10-10T07:36:54.915Z,1006.48
2017-10-10T07:37:54.900Z,1006.41
2017-10-10T07:38:54.886Z,1006.47
2017-10-10T07:39:54.879Z,1006.43
2017-10-10T07:40:54.864Z,1006.49
2017-10-10T07:41:54.842Z,1006.47
2017-10-10T07:42:54.827Z,1006.47
2017-10-10T07:43:54.813Z,1006.47
2017-10-10T07:44:54.809Z,1006.52
2017-10-10T07:45:54.786Z,1006.52
2017-10-10T07:46:54.768Z,1006.47
2017-10-10T07:47:54.758Z,1006.49
2017-10-10T07:48:54.741Z,1006.52
2017-10-10T07:49:54.758Z,1006.55
2017-10-10T07:50:54.711Z,1006.53
2017-10-10T07:51:54.698Z,1006.55
2017-10-10T07:52:54.681Z,1006.54
2017-10-10T07:53:54.671Z,1006.49
2017-10-10T07:54:54.654Z,1006.53
2017-10-10T07:55:54.643Z,1006.47
2017-10-10T07:56:54.624Z,1006.54
2017-10-10T07:57:54.611Z,1006.54
2017-10-10T07:58:54.597Z,1006.52
2017-10-10T07:59:54.581Z,1006.65
2017-10-10T08:00:54.570Z,1006.57
2017-10-10T08:01:54.552Z,1006.55
2017-10-10T08:02:54.536Z,1006.59
2017-10-10T08:03:54.534Z,1006.6
2017-10-10T08:04:54.514Z,1006.56
2017-10-10T08:05:54.494Z,1006.57
2017-10-10T08:06:54.490Z,1006.58
2017-10-10T08:07:54.466Z,1006.52
2017-10-10T08:08:54.452Z,1006.57
2017-10-10T08:09:54.437Z,1006.53
2017-10-10T08:10:54.427Z,1006.53
2017-10-10T08:11:54.409Z,1006.52
2017-10-10T08:12:54.396Z,1006.55
2017-10-10T08:13:54.382Z,1006.54
2017-10-10T08:14:54.366Z,1006.51
2017-10-10T08:15:54.352Z,1006.53
2017-10-10T08:16:54.337Z,1006.52
2017-10-10T08:17:54.322Z,1006.58
2017-10-10T08:18:54.512Z,1006.58
2017-10-10T08:19:54.299Z,1006.56
2017-10-10T08:20:54.282Z,1006.59
2017-10-10T08:21:54.267Z,1006.59
2017-10-10T08:22:54.254Z,1006.58
2017-10-10T08:23:54.243Z,1006.55
2017-10-10T08:24:54.226Z,1006.57
2017-10-10T08:25:54.211Z,1006.54
2017-10-10T08:26:54.196Z,1006.55
2017-10-10T08:27:54.185Z,1006.54
2017-10-10T08:28:54.171Z,1006.56
2017-10-10T08:29:54.156Z,1006.58
2017-10-10T08:30:54.145Z,1006.61
2017-10-10T08:31:54.129Z,1006.64
2017-10-10T08:32:54.117Z,1006.63
2017-10-10T08:33:54.101Z,1006.63
2017-10-10T08:34:54.089Z,1006.64
2017-10-10T08:35:54.079Z,1006.6
2017-10-10T08:36:54.061Z,1006.61
2017-10-10T08:37:54.046Z,1006.63
2017-10-10T08:38:54.038Z,1006.59
2017-10-10T08:39:54.018Z,1006.7
2017-10-10T08:40:54.011Z,1006.7
2017-10-10T08:41:53.993Z,1006.65
2017-10-10T08:42:53.979Z,1006.72
2017-10-10T08:43:53.965Z,1006.69
2017-10-10T08:44:53.951Z,1006.71
2017-10-10T08:45:53.943Z,1006.71
2017-10-10T08:46:53.927Z,1006.74
2017-10-10T08:47:53.913Z,1006.69
2017-10-10T08:48:53.901Z,1006.69
2017-10-10T08:49:53.888Z,1006.73
2017-10-10T08:50:53.873Z,1006.73
2017-10-10T08:51:53.869Z,1006.74
2017-10-10T08:52:53.844Z,1006.72
2017-10-10T08:53:53.833Z,1006.79
2017-10-10T08:54:53.819Z,1006.78
2017-10-10T08:55:53.805Z,1006.82
2017-10-10T08:56:53.793Z,1006.78
2017-10-10T08:57:53.782Z,1006.81
2017-10-10T08:58:53.764Z,1006.76
2017-10-10T08:59:53.754Z,1006.83
2017-10-10T09:00:53.740Z,1006.76
2017-10-10T09:01:53.726Z,1006.77
2017-10-10T09:02:53.714Z,1006.81
2017-10-10T09:03:53.701Z,1006.7
2017-10-10T09:04:53.688Z,1006.71
2017-10-10T09:05:53.673Z,1006.8
2017-10-10T09:06:53.661Z,1006.77
2017-10-10T09:07:53.650Z,1006.76
2017-10-10T09:08:53.637Z,1006.76
2017-10-10T09:09:53.622Z,1006.76
2017-10-10T09:10:53.609Z,1006.79
2017-10-10T09:11:53.598Z,1006.71
2017-10-10T09:12:53.582Z,1006.74
2017-10-10T09:13:53.574Z,1006.68
2017-10-10T09:14:53.558Z,1006.68
2017-10-10T09:15:53.545Z,1006.77
2017-10-10T09:16:53.531Z,1006.67
2017-10-10T09:17:53.519Z,1006.69
2017-10-10T09:18:53.508Z,1006.69
2017-10-10T09:19:53.495Z,1006.7
2017-10-10T09:20:53.481Z,1006.78
2017-10-10T09:21:53.469Z,1006.65
2017-10-10T09:22:53.455Z,1006.71
2017-10-10T09:23:53.441Z,1006.71
2017-10-10T09:24:53.434Z,1006.69
2017-10-10T09:25:53.418Z,1006.7
2017-10-10T09:26:53.404Z,1006.7
2017-10-10T09:27:53.391Z,1006.7
2017-10-10T09:28:53.379Z,1006.73
2017-10-10T09:29:53.367Z,1006.75
2017-10-10T09:30:53.356Z,1006.79
2017-10-10T09:31:53.342Z,1006.8
2017-10-10T09:32:53.332Z,1006.78
2017-10-10T09:33:53.320Z,1006.82
2017-10-10T09:34:53.307Z,1006.81
2017-10-10T09:35:53.293Z,1006.81
2017-10-10T09:36:53.288Z,1006.83
2017-10-10T09:37:53.271Z,1006.84
2017-10-10T09:38:53.265Z,1006.85
2017-10-10T09:39:53.246Z,1006.89
2017-10-10T09:40:53.237Z,1006.9
2017-10-10T09:41:53.222Z,1006.94
2017-10-10T09:42:53.208Z,1006.91
2017-10-10T09:43:53.196Z,1006.92
2017-10-10T09:44:53.184Z,1006.91
2017-10-10T09:45:53.171Z,1006.91
2017-10-10T09:46:53.160Z,1006.9
2017-10-10T09:47:53.146Z,1006.97
2017-10-10T09:48:53.134Z,1006.87
2017-10-10T09:49:53.120Z,1006.88
2017-10-10T09:50:53.109Z,1006.86
2017-10-10T09:51:53.095Z,1006.85
2017-10-10T09:52:53.080Z,1006.89
2017-10-10T09:53:53.068Z,1006.87
2017-10-10T09:54:53.055Z,1006.93
2017-10-10T09:55:53.044Z,1006.92
2017-10-10T09:56:53.029Z,1006.87
2017-10-10T09:57:53.022Z,1006.93
2017-10-10T09:58:53.004Z,1006.93
2017-10-10T09:59:52.989Z,1007.01
2017-10-10T10:00:52.977Z,1007
2017-10-10T10:01:52.966Z,1007.02
2017-10-10T10:02:52.951Z,1007.02
2017-10-10T10:03:52.939Z,1007.02
2017-10-10T10:04:52.925Z,1007.04
2017-10-10T10:05:52.913Z,1007.08
2017-10-10T10:06:52.898Z,1007.12
2017-10-10T10:07:52.890Z,1007.11
2017-10-10T10:08:52.873Z,1007.11
2017-10-10T10:09:52.860Z,1007.11
2017-10-10T10:10:52.849Z,1007.12
2017-10-10T10:11:52.836Z,1007.16
2017-10-10T10:12:52.822Z,1007.09
2017-10-10T10:13:52.809Z,1007.12
2017-10-10T10:14:52.804Z,1007.13
2017-10-10T10:15:52.782Z,1007.17
2017-10-10T10:16:52.775Z,1007.16
2017-10-10T10:17:52.760Z,1007.09
2017-10-10T10:18:52.948Z,1007.13
2017-10-10T10:19:52.736Z,1007.13
2017-10-10T10:20:52.727Z,1007.13
2017-10-10T10:21:52.712Z,1007.19
2017-10-10T10:22:52.701Z,1007.09
2017-10-10T10:23:52.687Z,1007.08
2017-10-10T10:24:52.677Z,1007.09
2017-10-10T10:25:52.665Z,1006.98
2017-10-10T10:26:52.653Z,1007
2017-10-10T10:27:52.646Z,1006.98
2017-10-10T10:28:52.639Z,1007.02
2017-10-10T10:29:52.621Z,1006.94
2017-10-10T10:30:52.611Z,1006.98
2017-10-10T10:31:52.596Z,1006.97
2017-10-10T10:32:52.587Z,1006.93
2017-10-10T10:33:52.575Z,1006.9
2017-10-10T10:34:52.564Z,1006.94
2017-10-10T10:35:52.556Z,1006.97
2017-10-10T10:36:52.541Z,1006.93
2017-10-10T10:37:52.530Z,1006.96
2017-10-10T10:38:52.522Z,1006.89
2017-10-10T10:39:52.510Z,1006.9
2017-10-10T10:40:52.497Z,1006.89
2017-10-10T10:41:52.488Z,1006.94
2017-10-10T10:42:52.476Z,1006.92
2017-10-10T10:43:52.468Z,1006.9
2017-10-10T10:44:52.454Z,1006.92
2017-10-10T10:45:52.444Z,1006.92
2017-10-10T10:46:52.432Z,1006.93
2017-10-10T10:47:52.421Z,1006.91
2017-10-10T10:48:52.410Z,1006.94
2017-10-10T10:49:52.398Z,1007.01
2017-10-10T10:50:52.388Z,1006.97
2017-10-10T10:51:52.377Z,1006.95
2017-10-10T10:52:52.366Z,1006.91
2017-10-10T10:53:52.354Z,1007
2017-10-10T10:54:52.341Z,1006.9
2017-10-10T10:55:52.334Z,1006.9
2017-10-10T10:56:52.320Z,1006.86
2017-10-10T10:57:52.315Z,1006.84
2017-10-10T10:58:52.300Z,1006.88
2017-10-10T10:59:52.287Z,1006.91
2017-10-10T11:00:52.276Z,1006.87
2017-10-10T11:01:52.266Z,1006.84
2017-10-10T11:02:52.254Z,1006.82
2017-10-10T11:03:52.245Z,1006.85
2017-10-10T11:04:52.235Z,1006.86
2017-10-10T11:05:52.221Z,1006.89
2017-10-10T11:06:52.209Z,1006.95
2017-10-10T11:07:52.198Z,1006.81
2017-10-10T11:08:52.186Z,1006.87
2017-10-10T11:09:52.173Z,1006.89
2017-10-10T11:10:52.173Z,1006.78
2017-10-10T11:11:52.154Z,1006.84
2017-10-10T11:12:52.149Z,1006.88
2017-10-10T11:13:52.152Z,1006.81
2017-10-10T11:14:52.121Z,1006.8
2017-10-10T11:15:52.110Z,1006.79
2017-10-10T11:16:52.100Z,1006.79
2017-10-10T11:17:52.091Z,1006.82
2017-10-10T11:18:52.082Z,1006.81
2017-10-10T11:19:52.068Z,1006.84
2017-10-10T11:20:52.062Z,1006.9
2017-10-10T11:21:52.044Z,1006.95
2017-10-10T11:22:52.033Z,1006.92
2017-10-10T11:23:52.021Z,1006.99
2017-10-10T11:24:52.009Z,1006.96
2017-10-10T11:25:52.001Z,1007
2017-10-10T11:26:51.990Z,1006.95
2017-10-10T11:27:51.977Z,1006.99
2017-10-10T11:28:51.967Z,1006.94
2017-10-10T11:29:51.959Z,1006.92
2017-10-10T11:30:51.949Z,1006.93
2017-10-10T11:31:51.934Z,1006.96
2017-10-10T11:32:51.922Z,1006.93
2017-10-10T11:33:51.911Z,1006.96
2017-10-10T11:34:51.903Z,1006.96
2017-10-10T11:35:51.891Z,1007.01
2017-10-10T11:36:51.879Z,1006.98
2017-10-10T11:37:51.868Z,1006.98
2017-10-10T11:38:51.858Z,1006.92
2017-10-10T11:39:51.851Z,1006.89
2017-10-10T11:40:51.838Z,1006.88
2017-10-10T11:41:51.827Z,1006.84
2017-10-10T11:42:51.818Z,1006.84
2017-10-10T11:43:51.813Z,1006.89
2017-10-10T11:44:51.797Z,1006.92
2017-10-10T11:45:51.788Z,1006.85
2017-10-10T11:46:51.779Z,1006.88
2017-10-10T11:47:51.767Z,1006.94
2017-10-10T11:48:51.756Z,1006.96
2017-10-10T11:49:51.747Z,1006.96
2017-10-10T11:50:51.738Z,1006.96
2017-10-10T11:51:51.728Z,1006.99
2017-10-10T11:52:51.718Z,1006.94
2017-10-10T11:53:51.707Z,1006.97
2017-10-10T11:54:51.699Z,1006.93
2017-10-10T11:55:51.689Z,1006.96
2017-10-10T11:56:51.680Z,1006.94
2017-10-10T11:57:51.668Z,1006.97
2017-10-10T11:58:51.661Z,1006.97
2017-10-10T11:59:51.650Z,1006.96
2017-10-10T12:00:51.641Z,1006.96
2017-10-10T12:01:51.629Z,1006.96
2017-10-10T12:02:51.622Z,1006.93
2017-10-10T12:03:51.611Z,1006.95
2017-10-10T12:04:51.602Z,1006.98
2017-10-10T12:05:51.592Z,1006.88
2017-10-10T12:06:51.580Z,1006.87
2017-10-10T12:07:51.573Z,1006.86
2017-10-10T12:08:51.572Z,1006.9